createdAt,value
2019-03-04T00:01:55.993Z,100.00
2019-03-04T00:04:24.555Z,100.00
2019-03-04T00:06:53.238Z,100.00
2019-03-04T00:09:21.966Z,100.00
2019-03-04T00:11:50.524Z,100.00
2019-03-04T00:14:19.225Z,100.00
2019-03-04T00:16:47.773Z,100.00
2019-03-04T00:19:17.402Z,100.00
2019-03-04T00:21:46.013Z,100.00
2019-03-04T00:24:14.688Z,100.00
2019-03-04T00:26:43.181Z,100.00
2019-03-04T00:29:11.715Z,100.00
2019-03-04T00:31:40.274Z,100.00
2019-03-04T00:34:08.818Z,100.00
2019-03-04T00:36:37.381Z,100.00
2019-03-04T00:39:08.964Z,100.00
2019-03-04T00:41:37.523Z,100.00
2019-03-04T00:44:06.207Z,100.00
2019-03-04T00:46:34.770Z,100.00
2019-03-04T00:49:03.382Z,100.00
2019-03-04T00:51:34.702Z,100.00
2019-03-04T00:54:03.262Z,100.00
2019-03-04T00:56:31.886Z,100.00
2019-03-04T00:59:00.459Z,100.00
2019-03-04T01:01:29.067Z,100.00
2019-03-04T01:04:00.810Z,100.00
2019-03-04T01:06:33.619Z,100.00
2019-03-04T01:09:02.248Z,100.00
2019-03-04T01:11:30.779Z,100.00
2019-03-04T01:13:59.402Z,100.00
2019-03-04T01:16:28.079Z,100.00
2019-03-04T01:18:56.577Z,100.00
2019-03-04T01:21:25.149Z,100.00
2019-03-04T01:23:53.728Z,100.00
2019-03-04T01:26:22.333Z,100.00
2019-03-04T01:28:50.828Z,100.00
2019-03-04T01:31:19.390Z,100.00
2019-03-04T01:33:47.960Z,100.00
2019-03-04T01:36:16.596Z,100.00
2019-03-04T01:38:45.171Z,100.00
2019-03-04T01:41:13.783Z,100.00
2019-03-04T01:43:42.447Z,100.00
2019-03-04T01:46:11.088Z,100.00
2019-03-04T01:48:39.650Z,100.00
2019-03-04T01:51:08.328Z,100.00
2019-03-04T01:53:36.817Z,100.00
2019-03-04T01:56:05.507Z,100.00
2019-03-04T01:58:34.003Z,100.00
2019-03-04T02:01:06.119Z,100.00
2019-03-04T02:03:34.718Z,100.00
2019-03-04T02:06:03.327Z,100.00
2019-03-04T02:08:31.882Z,100.00
2019-03-04T02:11:00.520Z,100.00
2019-03-04T02:13:29.127Z,100.00
2019-03-04T02:15:57.666Z,100.00
2019-03-04T02:18:26.197Z,100.00
2019-03-04T02:20:54.829Z,100.00
2019-03-04T02:23:23.431Z,100.00
2019-03-04T02:25:54.985Z,100.00
2019-03-04T02:28:23.514Z,100.00
2019-03-04T02:30:52.078Z,100.00
2019-03-04T02:33:20.678Z,100.00
2019-03-04T02:35:49.251Z,100.00
2019-03-04T02:38:17.748Z,100.00
2019-03-04T02:40:46.300Z,100.00
2019-03-04T02:43:14.934Z,100.00
2019-03-04T02:45:43.616Z,100.00
2019-03-04T02:48:12.172Z,100.00
2019-03-04T02:50:40.858Z,100.00
2019-03-04T02:53:09.416Z,100.00
2019-03-04T02:55:37.999Z,100.00
2019-03-04T02:58:06.674Z,100.00
2019-03-04T03:00:35.382Z,100.00
2019-03-04T03:03:04.061Z,100.00
2019-03-04T03:05:32.755Z,100.00
2019-03-04T03:08:01.313Z,100.00
2019-03-04T03:10:29.882Z,100.00
2019-03-04T03:12:58.536Z,100.00
2019-03-04T03:15:27.764Z,100.00
2019-03-04T03:17:56.405Z,100.00
2019-03-04T03:20:24.982Z,100.00
2019-03-04T03:22:53.557Z,100.00
2019-03-04T03:25:22.187Z,100.00
2019-03-04T03:27:50.729Z,100.00
2019-03-04T03:30:21.277Z,100.00
2019-03-04T03:32:49.962Z,100.00
2019-03-04T03:35:18.589Z,100.00
2019-03-04T03:37:47.258Z,100.00
2019-03-04T03:40:21.427Z,100.00
2019-03-04T03:42:50.150Z,100.00
2019-03-04T03:45:18.804Z,100.00
2019-03-04T03:47:47.466Z,100.00
2019-03-04T03:50:22.157Z,100.00
2019-03-04T03:52:50.785Z,100.00
2019-03-04T03:55:20.639Z,100.00
2019-03-04T03:57:49.277Z,100.00
2019-03-04T04:00:20.536Z,100.00
2019-03-04T04:02:49.198Z,100.00
2019-03-04T04:05:17.838Z,100.00
2019-03-04T04:07:46.459Z,100.00
2019-03-04T04:10:21.888Z,100.00
2019-03-04T04:12:50.575Z,100.00
2019-03-04T04:15:20.216Z,100.00
2019-03-04T04:17:55.353Z,100.00
2019-03-04T04:20:24.007Z,100.00
2019-03-04T04:22:53.986Z,100.00
2019-03-04T04:25:22.551Z,100.00
2019-03-04T04:27:51.105Z,100.00
2019-03-04T04:30:22.477Z,100.00
2019-03-04T04:32:52.226Z,100.00
2019-03-04T04:35:20.787Z,100.00
2019-03-04T04:37:49.285Z,100.00
2019-03-04T04:40:17.901Z,100.00
2019-03-04T04:42:46.512Z,100.00
2019-03-04T04:45:15.195Z,100.00
2019-03-04T04:47:50.139Z,100.00
2019-03-04T04:50:45.225Z,100.00
2019-03-04T04:53:35.319Z,100.00
2019-03-04T04:56:41.821Z,100.00
2019-03-04T04:59:32.955Z,100.00
2019-03-04T05:02:40.340Z,100.00
2019-03-04T05:08:40.342Z,100.00
2019-03-04T05:12:03.340Z,100.00
2019-03-04T05:14:53.174Z,100.00
2019-03-04T05:17:59.638Z,100.00
2019-03-04T05:20:49.290Z,100.00
2019-03-04T05:27:11.985Z,100.00
2019-03-04T05:30:18.383Z,100.00
2019-03-04T05:33:08.312Z,100.00
2019-03-04T05:36:15.081Z,100.00
2019-03-04T05:42:19.304Z,100.00
2019-03-04T05:45:25.838Z,100.00
2019-03-04T05:48:15.497Z,100.00
2019-03-04T05:51:21.806Z,100.00
2019-03-04T05:57:08.294Z,100.00
2019-03-04T05:59:44.306Z,100.00
2019-03-04T06:02:14.627Z,100.00
2019-03-04T06:04:51.958Z,100.00
2019-03-04T06:07:22.254Z,100.00
2019-03-04T06:09:58.447Z,100.00
2019-03-04T06:12:30.246Z,100.00
2019-03-04T06:15:07.798Z,100.00
2019-03-04T06:17:39.498Z,100.00
2019-03-04T06:23:13.749Z,100.00
2019-03-04T06:25:50.344Z,100.00
2019-03-04T06:28:20.620Z,100.00
2019-03-04T06:30:56.979Z,100.00
2019-03-04T06:33:27.229Z,100.00
2019-03-04T06:36:03.442Z,100.00
2019-03-04T06:38:34.229Z,100.00
2019-03-04T06:44:07.812Z,100.00
2019-03-04T06:46:43.819Z,100.00
2019-03-04T06:49:14.206Z,96.46
2019-03-04T06:51:50.429Z,91.62
2019-03-04T06:54:32.527Z,85.32
2019-03-04T06:57:08.867Z,86.04
2019-03-04T06:59:47.781Z,82.58
2019-03-04T07:02:19.096Z,79.73
2019-03-04T07:05:05.551Z,77.82
2019-03-04T07:07:34.313Z,78.53
2019-03-04T07:10:03.000Z,77.60
2019-03-04T07:12:31.799Z,81.35
2019-03-04T07:15:00.347Z,79.04
2019-03-04T07:17:29.137Z,82.02
2019-03-04T07:20:16.012Z,74.91
2019-03-04T07:22:44.759Z,72.36
2019-03-04T07:25:13.582Z,65.44
2019-03-04T07:27:44.355Z,70.17
2019-03-04T07:30:20.793Z,66.31
2019-03-04T07:32:49.432Z,64.99
2019-03-04T07:35:18.129Z,59.96
2019-03-04T07:37:46.832Z,57.09
2019-03-04T07:40:17.818Z,56.38
2019-03-04T07:42:46.618Z,55.66
2019-03-04T07:45:15.346Z,52.24
2019-03-04T07:47:44.137Z,49.62
2019-03-04T07:50:12.781Z,46.91
2019-03-04T07:52:41.556Z,45.82
2019-03-04T07:55:10.393Z,46.49
2019-03-04T07:57:41.832Z,47.40
2019-03-04T08:00:12.571Z,47.01
2019-03-04T08:02:41.311Z,46.74
2019-03-04T08:05:11.413Z,45.99
2019-03-04T08:07:45.038Z,45.64
2019-03-04T08:10:16.573Z,45.45
2019-03-04T08:13:10.765Z,45.29
2019-03-04T08:15:40.314Z,45.83
2019-03-04T08:18:09.019Z,44.36
2019-03-04T08:20:37.861Z,44.01
2019-03-04T08:23:06.602Z,45.24
2019-03-04T08:25:35.366Z,42.35
2019-03-04T08:28:05.524Z,39.93
2019-03-04T08:30:34.576Z,40.31
2019-03-04T08:33:03.356Z,41.01
2019-03-04T08:35:34.514Z,41.25
2019-03-04T08:38:03.193Z,40.15
2019-03-04T08:40:32.394Z,39.37
2019-03-04T08:43:01.042Z,36.61
2019-03-04T08:45:29.899Z,37.69
2019-03-04T08:48:00.476Z,36.25
2019-03-04T08:50:29.325Z,37.51
2019-03-04T08:52:58.014Z,36.50
2019-03-04T08:55:26.756Z,37.80
2019-03-04T08:57:55.550Z,37.42
2019-03-04T09:00:31.462Z,36.08
2019-03-04T09:03:00.230Z,33.10
2019-03-04T09:05:29.129Z,30.79
2019-03-04T09:08:00.678Z,31.07
2019-03-04T09:10:32.026Z,32.48
2019-03-04T09:13:00.661Z,33.75
2019-03-04T09:15:29.454Z,33.37
2019-03-04T09:17:58.249Z,31.90
2019-03-04T09:20:27.271Z,31.20
2019-03-04T09:22:56.517Z,31.86
2019-03-04T09:25:36.854Z,32.58
2019-03-04T09:28:05.688Z,31.86
2019-03-04T09:30:34.555Z,29.87
2019-03-04T09:33:03.286Z,28.64
2019-03-04T09:35:32.778Z,26.14
2019-03-04T09:38:01.685Z,27.43
2019-03-04T09:40:32.482Z,27.94
2019-03-04T09:43:01.922Z,27.21
2019-03-04T09:45:38.400Z,26.94
2019-03-04T09:48:01.133Z,26.66
2019-03-04T09:50:31.080Z,25.53
2019-03-04T09:53:00.055Z,25.40
2019-03-04T09:55:29.285Z,25.47
2019-03-04T09:57:58.373Z,25.49
2019-03-04T10:00:38.986Z,26.18
2019-03-04T10:03:22.846Z,24.82
2019-03-04T10:06:09.256Z,24.81
2019-03-04T10:08:40.795Z,23.67
2019-03-04T10:11:30.276Z,25.54
2019-03-04T10:14:04.467Z,25.46
2019-03-04T10:16:38.816Z,23.82
2019-03-04T10:19:34.367Z,23.98
2019-03-04T10:22:23.656Z,24.41
2019-03-04T10:24:55.195Z,23.83
2019-03-04T10:27:35.693Z,24.56
2019-03-04T10:30:19.108Z,24.71
2019-03-04T10:33:18.088Z,23.80
2019-03-04T10:36:04.661Z,22.07
2019-03-04T10:39:13.720Z,21.19
2019-03-04T10:41:53.624Z,20.23
2019-03-04T10:44:53.302Z,21.20
2019-03-04T10:47:23.971Z,20.65
2019-03-04T10:49:52.745Z,22.60
2019-03-04T10:52:44.757Z,19.71
2019-03-04T10:55:17.801Z,19.40
2019-03-04T10:57:47.069Z,20.22
2019-03-04T11:00:24.977Z,21.22
2019-03-04T11:03:02.943Z,21.08
2019-03-04T11:05:31.995Z,22.06
2019-03-04T11:08:00.830Z,22.88
2019-03-04T11:10:29.631Z,22.01
2019-03-04T11:13:03.250Z,22.16
2019-03-04T11:15:33.495Z,21.97
2019-03-04T11:18:02.364Z,22.51
2019-03-04T11:20:31.223Z,21.79
2019-03-04T11:22:59.991Z,22.09
2019-03-04T11:25:29.197Z,21.77
2019-03-04T11:27:58.142Z,20.74
2019-03-04T11:30:28.543Z,21.71
2019-03-04T11:32:57.494Z,20.48
2019-03-04T11:35:26.355Z,20.68
2019-03-04T11:37:55.350Z,20.46
2019-03-04T11:40:41.574Z,21.29
2019-03-04T11:43:10.375Z,20.22
2019-03-04T11:45:39.096Z,20.59
2019-03-04T11:48:07.801Z,19.82
2019-03-04T11:50:36.575Z,20.19
2019-03-04T11:53:05.408Z,20.69
2019-03-04T11:55:34.191Z,20.00
2019-03-04T11:58:03.157Z,18.86
2019-03-04T12:00:50.032Z,18.50
2019-03-04T12:03:18.829Z,19.37
2019-03-04T12:05:47.621Z,18.70
2019-03-04T12:08:16.425Z,19.15
2019-03-04T12:10:45.193Z,18.61
2019-03-04T12:13:13.972Z,17.90
2019-03-04T12:15:42.673Z,19.25
2019-03-04T12:18:11.461Z,18.80
2019-03-04T12:20:40.253Z,18.98
2019-03-04T12:23:08.993Z,18.95
2019-03-04T12:25:37.871Z,19.17
2019-03-04T12:28:06.694Z,19.11
2019-03-04T12:30:35.450Z,18.68
2019-03-04T12:33:04.575Z,18.43
2019-03-04T12:35:33.407Z,18.69
2019-03-04T12:38:02.215Z,17.58
2019-03-04T12:40:30.921Z,16.58
2019-03-04T12:42:59.503Z,16.43
2019-03-04T12:45:34.378Z,17.23
2019-03-04T12:47:58.926Z,18.07
2019-03-04T12:50:43.599Z,17.61
2019-03-04T12:53:12.491Z,17.51
2019-03-04T12:55:41.145Z,16.98
2019-03-04T12:58:09.917Z,17.50
2019-03-04T13:00:38.776Z,17.28
2019-03-04T13:03:09.415Z,16.83
2019-03-04T13:05:37.970Z,16.58
2019-03-04T13:08:06.786Z,17.21
2019-03-04T13:10:35.492Z,17.79
2019-03-04T13:13:04.209Z,17.82
2019-03-04T13:15:34.559Z,17.06
2019-03-04T13:18:04.421Z,16.20
2019-03-04T13:20:33.173Z,17.21
2019-03-04T13:23:01.804Z,18.55
2019-03-04T13:25:31.107Z,18.70
2019-03-04T13:28:18.661Z,18.14
2019-03-04T13:30:47.677Z,17.20
2019-03-04T13:33:16.564Z,18.03
2019-03-04T13:35:45.450Z,17.86
2019-03-04T13:38:14.130Z,17.89
2019-03-04T13:40:44.352Z,17.87
2019-03-04T13:43:16.070Z,16.96
2019-03-04T13:45:44.734Z,16.75
2019-03-04T13:48:13.420Z,17.10
2019-03-04T13:50:42.044Z,17.54
2019-03-04T13:53:10.595Z,16.62
2019-03-04T13:55:39.337Z,17.55
2019-03-04T13:58:08.034Z,17.57
2019-03-04T14:00:38.666Z,18.06
2019-03-04T14:03:07.958Z,17.21
2019-03-04T14:05:36.563Z,17.88
2019-03-04T14:08:05.335Z,18.14
2019-03-04T14:10:41.864Z,18.31
2019-03-04T14:13:10.488Z,17.51
2019-03-04T14:15:46.686Z,18.70
2019-03-04T14:18:15.311Z,18.41
2019-03-04T14:20:43.906Z,19.30
2019-03-04T14:23:12.537Z,18.57
2019-03-04T14:25:41.406Z,18.93
2019-03-04T14:28:10.031Z,19.79
2019-03-04T14:30:38.692Z,19.95
2019-03-04T14:33:07.331Z,19.64
2019-03-04T14:35:35.975Z,21.48
2019-03-04T14:38:04.675Z,21.23
2019-03-04T14:40:33.303Z,20.54
2019-03-04T14:43:02.157Z,21.14
2019-03-04T14:45:30.855Z,21.71
2019-03-04T14:47:59.475Z,23.83
2019-03-04T14:50:28.618Z,25.62
2019-03-04T14:52:57.398Z,24.82
2019-03-04T14:55:28.360Z,24.01
2019-03-04T14:57:56.997Z,24.04
2019-03-04T15:00:31.570Z,23.38
2019-03-04T15:03:00.217Z,23.85
2019-03-04T15:05:28.841Z,23.79
2019-03-04T15:07:57.511Z,23.30
2019-03-04T15:10:26.051Z,23.44
2019-03-04T15:12:54.728Z,23.41
2019-03-04T15:15:25.921Z,24.26
2019-03-04T15:17:54.451Z,24.83
2019-03-04T15:20:28.091Z,25.16
2019-03-04T15:22:56.723Z,26.18
2019-03-04T15:25:31.350Z,26.30
2019-03-04T15:28:14.011Z,25.47
2019-03-04T15:30:44.395Z,26.93
2019-03-04T15:33:17.903Z,27.14
2019-03-04T15:35:43.373Z,28.78
2019-03-04T15:38:12.052Z,29.14
2019-03-04T15:40:40.697Z,29.73
2019-03-04T15:43:09.439Z,29.81
2019-03-04T15:45:40.047Z,31.07
2019-03-04T15:48:08.810Z,32.07
2019-03-04T15:50:37.494Z,32.63
2019-03-04T15:53:06.731Z,33.99
2019-03-04T15:55:35.407Z,35.31
2019-03-04T15:58:04.235Z,36.79
2019-03-04T16:00:32.800Z,37.61
2019-03-04T16:03:01.493Z,40.22
2019-03-04T16:05:30.165Z,40.22
2019-03-04T16:08:07.023Z,41.61
2019-03-04T16:10:35.692Z,43.03
2019-03-04T16:13:05.002Z,43.87
2019-03-04T16:15:38.681Z,45.02
2019-03-04T16:18:07.314Z,46.01
2019-03-04T16:20:35.989Z,48.04
2019-03-04T16:23:04.618Z,48.65
2019-03-04T16:25:33.299Z,50.06
2019-03-04T16:28:04.841Z,51.96
2019-03-04T16:30:33.519Z,54.22
2019-03-04T16:33:02.083Z,57.87
2019-03-04T16:35:30.768Z,60.38
2019-03-04T16:37:59.399Z,63.57
2019-03-04T16:40:28.039Z,65.78
2019-03-04T16:42:56.653Z,67.56
2019-03-04T16:45:25.327Z,69.30
2019-03-04T16:47:53.966Z,69.93
2019-03-04T16:50:28.267Z,71.09
2019-03-04T16:52:59.195Z,71.82
2019-03-04T16:55:27.874Z,72.52
2019-03-04T16:57:56.499Z,73.98
2019-03-04T17:00:25.204Z,74.27
2019-03-04T17:02:53.880Z,74.78
2019-03-04T17:05:22.519Z,75.83
2019-03-04T17:07:51.154Z,76.78
2019-03-04T17:10:24.735Z,77.19
2019-03-04T17:12:54.615Z,77.63
2019-03-04T17:15:24.147Z,77.61
2019-03-04T17:17:53.078Z,78.35
2019-03-04T17:20:24.616Z,78.32
2019-03-04T17:22:53.239Z,79.32
2019-03-04T17:25:25.507Z,80.31
2019-03-04T17:27:54.148Z,81.35
2019-03-04T17:30:24.919Z,82.92
2019-03-04T17:32:53.540Z,83.59
2019-03-04T17:35:24.173Z,84.46
2019-03-04T17:37:52.789Z,85.56
2019-03-04T17:40:31.470Z,86.46
2019-03-04T17:43:00.097Z,88.63
2019-03-04T17:45:29.535Z,90.69
2019-03-04T17:47:58.202Z,91.63
2019-03-04T17:50:41.090Z,92.85
2019-03-04T17:53:11.857Z,93.03
2019-03-04T17:55:40.450Z,93.82
2019-03-04T17:58:09.076Z,94.37
2019-03-04T18:00:39.345Z,95.81
2019-03-04T18:03:08.121Z,97.11
2019-03-04T18:05:36.798Z,98.26
2019-03-04T18:08:05.420Z,97.08
2019-03-04T18:10:34.021Z,97.95
2019-03-04T18:13:05.459Z,100.00
2019-03-04T18:15:40.013Z,100.00
2019-03-04T18:18:08.573Z,100.00
2019-03-04T18:20:37.210Z,100.00
2019-03-04T18:23:05.868Z,100.00
2019-03-04T18:25:52.332Z,100.00
2019-03-04T18:28:44.463Z,100.00
2019-03-04T18:31:22.229Z,100.00
2019-03-04T18:34:08.960Z,100.00
2019-03-04T18:36:49.659Z,100.00
2019-03-04T18:39:44.087Z,100.00
2019-03-04T18:42:27.739Z,100.00
2019-03-04T18:45:25.027Z,100.00
2019-03-04T18:48:19.418Z,100.00
2019-03-04T18:50:48.103Z,100.00
2019-03-04T18:53:16.637Z,100.00
2019-03-04T18:55:45.302Z,100.00
2019-03-04T18:58:13.927Z,100.00
2019-03-04T19:00:43.201Z,100.00
2019-03-04T19:03:11.790Z,100.00
2019-03-04T19:05:40.545Z,100.00
2019-03-04T19:08:09.172Z,100.00
2019-03-04T19:10:37.750Z,100.00
2019-03-04T19:13:06.441Z,100.00
2019-03-04T19:15:35.069Z,100.00
2019-03-04T19:18:03.670Z,100.00
2019-03-04T19:20:32.346Z,100.00
2019-03-04T19:23:00.909Z,100.00
2019-03-04T19:25:29.519Z,100.00
2019-03-04T19:27:58.148Z,100.00
2019-03-04T19:30:26.712Z,100.00
2019-03-04T19:32:58.365Z,100.00
2019-03-04T19:35:29.753Z,100.00
2019-03-04T19:37:58.401Z,100.00
2019-03-04T19:40:30.228Z,100.00
2019-03-04T19:42:59.163Z,100.00
2019-03-04T19:45:27.794Z,100.00
2019-03-04T19:47:56.398Z,100.00
2019-03-04T19:50:27.878Z,100.00
2019-03-04T19:52:56.535Z,100.00
2019-03-04T19:55:25.098Z,100.00
2019-03-04T19:57:53.670Z,100.00
2019-03-04T20:00:25.830Z,100.00
2019-03-04T20:02:54.672Z,100.00
2019-03-04T20:05:23.841Z,100.00
2019-03-04T20:07:52.450Z,100.00
2019-03-04T20:10:21.227Z,100.00
2019-03-04T20:12:49.795Z,100.00
2019-03-04T20:15:32.768Z,100.00
2019-03-04T20:18:01.393Z,100.00
2019-03-04T20:20:33.007Z,100.00
2019-03-04T20:23:01.689Z,100.00
2019-03-04T20:25:30.326Z,100.00
2019-03-04T20:27:59.100Z,100.00
2019-03-04T20:30:27.838Z,100.00
2019-03-04T20:32:56.509Z,100.00
2019-03-04T20:35:25.136Z,100.00
2019-03-04T20:37:59.913Z,100.00
2019-03-04T20:40:36.741Z,100.00
2019-03-04T20:43:05.418Z,100.00
2019-03-04T20:45:34.132Z,100.00
2019-03-04T20:48:02.629Z,100.00
2019-03-04T20:50:31.306Z,100.00
2019-03-04T20:52:59.947Z,100.00
2019-03-04T20:55:28.702Z,100.00
2019-03-04T20:57:57.277Z,100.00
2019-03-04T21:00:35.218Z,100.00
2019-03-04T21:03:05.145Z,100.00
2019-03-04T21:05:34.158Z,100.00
2019-03-04T21:08:02.841Z,100.00
2019-03-04T21:10:31.465Z,100.00
2019-03-04T21:13:10.506Z,100.00
2019-03-04T21:15:41.909Z,100.00
2019-03-04T21:18:10.561Z,100.00
2019-03-04T21:20:39.230Z,100.00
2019-03-04T21:23:07.898Z,100.00
2019-03-04T21:25:39.466Z,100.00
2019-03-04T21:28:19.742Z,100.00
2019-03-04T21:31:00.250Z,100.00
2019-03-04T21:33:43.960Z,100.00
2019-03-04T21:36:47.403Z,100.00
2019-03-04T21:39:21.531Z,100.00
2019-03-04T21:42:05.089Z,100.00
2019-03-04T21:44:54.366Z,100.00
2019-03-04T21:47:26.128Z,100.00
2019-03-04T21:49:54.885Z,100.00
2019-03-04T21:52:29.286Z,100.00
2019-03-04T21:54:57.858Z,100.00
2019-03-04T21:57:36.102Z,100.00
2019-03-04T22:00:07.694Z,100.00
2019-03-04T22:02:39.290Z,100.00
2019-03-04T22:05:15.106Z,100.00
2019-03-04T22:07:43.773Z,100.00
2019-03-04T22:10:13.985Z,100.00
2019-03-04T22:12:43.526Z,100.00
2019-03-04T22:15:12.313Z,100.00
2019-03-04T22:17:40.964Z,100.00
2019-03-04T22:20:11.739Z,100.00
2019-03-04T22:22:40.295Z,100.00
2019-03-04T22:25:13.342Z,100.00
2019-03-04T22:27:41.912Z,100.00
2019-03-04T22:30:13.495Z,100.00
2019-03-04T22:32:42.149Z,100.00
2019-03-04T22:35:13.626Z,100.00
2019-03-04T22:37:42.343Z,100.00
2019-03-04T22:40:18.289Z,100.00
2019-03-04T22:42:46.906Z,100.00
2019-03-04T22:45:17.620Z,100.00
2019-03-04T22:47:46.642Z,100.00
2019-03-04T22:50:17.833Z,100.00
2019-03-04T22:52:46.471Z,100.00
2019-03-04T22:55:18.414Z,100.00
2019-03-04T22:57:46.996Z,100.00
2019-03-04T23:00:54.349Z,100.00
2019-03-04T23:03:31.626Z,100.00
2019-03-04T23:06:25.855Z,100.00
2019-03-04T23:08:54.490Z,100.00
2019-03-04T23:11:26.078Z,100.00
2019-03-04T23:14:03.777Z,100.00
2019-03-04T23:16:33.456Z,100.00
2019-03-04T23:19:02.097Z,100.00
2019-03-04T23:21:30.722Z,100.00
2019-03-04T23:23:59.363Z,100.00
2019-03-04T23:26:27.986Z,100.00
2019-03-04T23:28:56.663Z,100.00
2019-03-04T23:31:25.347Z,100.00
2019-03-04T23:33:53.828Z,100.00
2019-03-04T23:36:22.476Z,100.00
2019-03-04T23:38:51.084Z,100.00
2019-03-04T23:41:19.657Z,100.00
2019-03-04T23:43:48.335Z,100.00
2019-03-04T23:46:16.950Z,100.00
2019-03-04T23:48:45.439Z,100.00
2019-03-04T23:51:14.043Z,100.00
2019-03-04T23:53:42.677Z,100.00
2019-03-04T23:56:11.341Z,100.00
2019-03-04T23:58:39.968Z,100.00
